createdAt,value
2023-02-27T00:00:34.786Z,1.72
2023-02-27T00:01:34.743Z,1.76
2023-02-27T00:02:34.770Z,1.70
2023-02-27T00:03:34.734Z,1.65
2023-02-27T00:04:34.660Z,1.70
2023-02-27T00:05:34.634Z,1.72
2023-02-27T00:06:34.612Z,1.66
2023-02-27T00:07:34.590Z,1.68
2023-02-27T00:08:34.716Z,1.69
2023-02-27T00:09:34.519Z,1.66
2023-02-27T00:10:34.496Z,1.63
2023-02-27T00:11:34.461Z,1.72
2023-02-27T00:12:34.430Z,1.65
2023-02-27T00:13:34.400Z,1.72
2023-02-27T00:14:34.375Z,1.65
2023-02-27T00:15:34.344Z,1.63
2023-02-27T00:16:34.355Z,1.69
2023-02-27T00:17:34.284Z,1.70
2023-02-27T00:18:34.263Z,1.63
2023-02-27T00:19:34.232Z,1.70
2023-02-27T00:20:34.203Z,1.66
2023-02-27T00:21:36.493Z,1.66
2023-02-27T00:22:34.149Z,1.66
2023-02-27T00:23:34.115Z,1.63
2023-02-27T00:24:34.130Z,1.69
2023-02-27T00:25:34.065Z,1.63
2023-02-27T00:26:34.035Z,1.52
2023-02-27T00:27:34.003Z,1.54
2023-02-27T00:28:33.976Z,1.47
2023-02-27T00:29:33.945Z,1.58
2023-02-27T00:30:33.939Z,1.48
2023-02-27T00:31:33.922Z,1.51
2023-02-27T00:32:34.006Z,1.55
2023-02-27T00:33:33.822Z,1.44
2023-02-27T00:34:33.795Z,1.48
2023-02-27T00:35:33.765Z,1.45
2023-02-27T00:36:33.749Z,1.45
2023-02-27T00:37:33.706Z,1.45
2023-02-27T00:38:33.690Z,1.48
2023-02-27T00:39:33.671Z,1.51
2023-02-27T00:40:33.652Z,1.48
2023-02-27T00:41:33.593Z,1.55
2023-02-27T00:42:33.582Z,1.44
2023-02-27T00:43:33.535Z,1.51
2023-02-27T00:44:33.510Z,1.37
2023-02-27T00:45:33.480Z,1.42
2023-02-27T00:46:33.580Z,1.37
2023-02-27T00:47:33.422Z,1.44
2023-02-27T00:48:33.392Z,1.32
2023-02-27T00:49:33.391Z,1.34
2023-02-27T00:50:33.338Z,1.30
2023-02-27T00:51:33.307Z,1.30
2023-02-27T00:52:33.280Z,1.42
2023-02-27T00:53:33.250Z,1.33
2023-02-27T00:54:33.229Z,1.40
2023-02-27T00:55:33.192Z,1.33
2023-02-27T00:56:33.187Z,1.23
2023-02-27T00:57:33.234Z,1.24
2023-02-27T00:58:33.121Z,1.24
2023-02-27T00:59:33.087Z,1.18
2023-02-27T01:00:33.129Z,1.18
2023-02-27T01:01:33.021Z,1.20
2023-02-27T01:02:33.049Z,1.18
2023-02-27T01:03:32.972Z,1.15
2023-02-27T01:04:32.940Z,1.24
2023-02-27T01:05:32.906Z,1.27
2023-02-27T01:06:32.883Z,1.29
2023-02-27T01:07:32.852Z,1.26
2023-02-27T01:08:32.832Z,1.32
2023-02-27T01:09:32.795Z,1.29
2023-02-27T01:10:32.767Z,1.33
2023-02-27T01:11:32.732Z,1.24
2023-02-27T01:12:32.736Z,1.27
2023-02-27T01:13:32.690Z,1.14
2023-02-27T01:14:32.664Z,1.40
2023-02-27T01:15:32.617Z,1.27
2023-02-27T01:16:32.672Z,1.24
2023-02-27T01:17:32.566Z,1.23
2023-02-27T01:18:32.535Z,1.18
2023-02-27T01:19:32.513Z,1.20
2023-02-27T01:20:32.479Z,1.22
2023-02-27T01:21:32.444Z,1.22
2023-02-27T01:22:32.421Z,1.15
2023-02-27T01:23:32.398Z,1.15
2023-02-27T01:24:32.366Z,1.06
2023-02-27T01:25:32.334Z,1.06
2023-02-27T01:26:32.318Z,1.05
2023-02-27T01:27:32.276Z,1.09
2023-02-27T01:28:32.276Z,1.11
2023-02-27T01:29:32.222Z,1.09
2023-02-27T01:30:32.218Z,1.09
2023-02-27T01:31:32.218Z,1.08
2023-02-27T01:32:32.200Z,1.14
2023-02-27T01:33:32.101Z,1.11
2023-02-27T01:34:34.161Z,1.16
2023-02-27T01:35:32.057Z,1.15
2023-02-27T01:36:32.025Z,1.14
2023-02-27T01:37:31.993Z,1.12
2023-02-27T01:38:31.966Z,1.08
2023-02-27T01:39:31.934Z,1.09
2023-02-27T01:40:31.899Z,1.14
2023-02-27T01:41:31.881Z,1.12
2023-02-27T01:42:31.853Z,1.12
2023-02-27T01:43:31.816Z,1.15
2023-02-27T01:44:31.809Z,1.16
2023-02-27T01:45:31.802Z,1.16
2023-02-27T01:46:31.727Z,1.15
2023-02-27T01:47:31.700Z,1.08
2023-02-27T01:48:31.677Z,1.06
2023-02-27T01:49:31.648Z,1.04
2023-02-27T01:50:31.621Z,1.09
2023-02-27T01:51:31.593Z,1.06
2023-02-27T01:52:31.560Z,1.11
2023-02-27T01:53:31.537Z,1.04
2023-02-27T01:54:31.499Z,0.98
2023-02-27T01:55:31.477Z,1.04
2023-02-27T01:56:31.439Z,0.96
2023-02-27T01:57:31.413Z,1.02
2023-02-27T01:58:31.378Z,0.94
2023-02-27T01:59:31.357Z,1.06
2023-02-27T02:00:31.350Z,1.00
2023-02-27T02:01:31.353Z,0.96
2023-02-27T02:02:31.338Z,0.91
2023-02-27T02:03:31.246Z,0.86
2023-02-27T02:04:31.235Z,0.88
2023-02-27T02:05:31.198Z,0.80
2023-02-27T02:06:31.150Z,0.76
2023-02-27T02:07:31.140Z,0.70
2023-02-27T02:08:31.096Z,0.70
2023-02-27T02:09:31.075Z,0.80
2023-02-27T02:10:31.037Z,0.79
2023-02-27T02:11:31.011Z,0.79
2023-02-27T02:12:30.984Z,0.87
2023-02-27T02:13:30.961Z,0.83
2023-02-27T02:14:30.920Z,0.84
2023-02-27T02:15:30.892Z,0.84
2023-02-27T02:16:30.963Z,0.75
2023-02-27T02:17:30.834Z,0.86
2023-02-27T02:18:30.834Z,0.75
2023-02-27T02:19:30.783Z,0.83
2023-02-27T02:20:30.751Z,0.76
2023-02-27T02:21:30.737Z,0.80
2023-02-27T02:22:30.693Z,0.83
2023-02-27T02:23:30.671Z,0.72
2023-02-27T02:24:30.646Z,0.70
2023-02-27T02:25:30.611Z,0.72
2023-02-27T02:26:33.236Z,0.60
2023-02-27T02:27:30.552Z,0.58
2023-02-27T02:28:30.519Z,0.66
2023-02-27T02:29:30.493Z,0.66
2023-02-27T02:30:30.618Z,0.70
2023-02-27T02:31:30.906Z,0.73
2023-02-27T02:32:30.451Z,0.69
2023-02-27T02:33:30.393Z,0.69
2023-02-27T02:34:30.350Z,0.72
2023-02-27T02:35:30.317Z,0.87
2023-02-27T02:36:30.292Z,0.78
2023-02-27T02:37:30.260Z,0.86
2023-02-27T02:38:30.224Z,0.90
2023-02-27T02:39:30.200Z,0.86
2023-02-27T02:40:30.178Z,0.84
2023-02-27T02:41:30.144Z,0.91
2023-02-27T02:42:30.107Z,1.00
2023-02-27T02:43:30.088Z,1.02
2023-02-27T02:44:30.066Z,1.00
2023-02-27T02:45:30.038Z,0.90
2023-02-27T02:46:30.000Z,1.08
2023-02-27T02:47:29.972Z,0.88
2023-02-27T02:48:29.961Z,0.98
2023-02-27T02:49:29.915Z,1.05
2023-02-27T02:50:29.881Z,0.94
2023-02-27T02:51:29.858Z,0.96
2023-02-27T02:52:29.827Z,0.98
2023-02-27T02:53:36.743Z,0.94
2023-02-27T02:54:29.768Z,0.93
2023-02-27T02:55:29.749Z,1.04
2023-02-27T02:56:29.720Z,0.93
2023-02-27T02:57:29.685Z,1.04
2023-02-27T02:58:29.654Z,1.00
2023-02-27T02:59:29.628Z,1.02
2023-02-27T03:00:29.591Z,0.87
2023-02-27T03:01:29.987Z,0.86
2023-02-27T03:02:29.540Z,0.91
2023-02-27T03:03:29.510Z,0.78
2023-02-27T03:04:29.546Z,0.84
2023-02-27T03:05:29.471Z,0.83
2023-02-27T03:06:29.425Z,0.75
2023-02-27T03:07:29.449Z,0.70
2023-02-27T03:08:29.368Z,0.73
2023-02-27T03:09:29.339Z,0.72
2023-02-27T03:10:29.301Z,0.72
2023-02-27T03:11:29.514Z,0.72
2023-02-27T03:12:29.250Z,0.69
2023-02-27T03:13:29.230Z,0.62
2023-02-27T03:14:29.208Z,0.58
2023-02-27T03:15:29.244Z,0.58
2023-02-27T03:16:29.146Z,0.68
2023-02-27T03:17:29.108Z,0.60
2023-02-27T03:18:29.074Z,0.66
2023-02-27T03:19:29.047Z,0.62
2023-02-27T03:20:29.034Z,0.60
2023-02-27T03:21:29.326Z,0.73
2023-02-27T03:22:28.960Z,0.70
2023-02-27T03:23:28.928Z,0.70
2023-02-27T03:24:28.900Z,0.66
2023-02-27T03:25:28.899Z,0.78
2023-02-27T03:26:28.844Z,0.87
2023-02-27T03:27:28.843Z,0.78
2023-02-27T03:28:28.786Z,0.83
2023-02-27T03:29:28.756Z,0.87
2023-02-27T03:30:28.744Z,0.84
2023-02-27T03:31:29.211Z,0.83
2023-02-27T03:32:28.689Z,0.70
2023-02-27T03:33:28.637Z,0.65
2023-02-27T03:34:28.609Z,0.65
2023-02-27T03:35:28.582Z,0.65
2023-02-27T03:36:28.567Z,0.69
2023-02-27T03:37:28.522Z,0.73
2023-02-27T03:38:28.488Z,0.66
2023-02-27T03:39:28.471Z,0.66
2023-02-27T03:40:28.435Z,0.84
2023-02-27T03:41:28.767Z,0.72
2023-02-27T03:42:28.374Z,0.79
2023-02-27T03:43:28.352Z,0.68
2023-02-27T03:44:28.320Z,0.44
2023-02-27T03:45:28.301Z,0.39
2023-02-27T03:46:28.316Z,0.38
2023-02-27T03:47:28.260Z,0.20
2023-02-27T03:48:28.208Z,0.08
2023-02-27T03:49:28.179Z,0.13
2023-02-27T03:50:28.144Z,0.13
2023-02-27T03:51:28.556Z,0.04
2023-02-27T03:52:28.102Z,-0.01
2023-02-27T03:53:28.066Z,-0.07
2023-02-27T03:54:28.026Z,-0.16
2023-02-27T03:55:28.001Z,-0.29
2023-02-27T03:56:27.972Z,-0.25
2023-02-27T03:57:27.944Z,-0.33
2023-02-27T03:58:27.910Z,-0.39
2023-02-27T03:59:27.882Z,-0.36
2023-02-27T04:00:27.860Z,-0.47
2023-02-27T04:01:28.299Z,-0.49
2023-02-27T04:02:27.868Z,-0.46
2023-02-27T04:03:27.769Z,-0.47
2023-02-27T04:04:27.736Z,-0.43
2023-02-27T04:05:27.711Z,-0.46
2023-02-27T04:06:27.685Z,-0.43
2023-02-27T04:07:27.652Z,-0.44
2023-02-27T04:08:27.640Z,-0.47
2023-02-27T04:09:27.595Z,-0.40
2023-02-27T04:10:27.560Z,-0.34
2023-02-27T04:11:27.853Z,-0.39
2023-02-27T04:12:27.501Z,-0.39
2023-02-27T04:13:27.486Z,-0.31
2023-02-27T04:14:27.450Z,-0.31
2023-02-27T04:15:27.422Z,-0.28
2023-02-27T04:16:27.411Z,-0.28
2023-02-27T04:17:27.375Z,-0.22
2023-02-27T04:18:27.328Z,-0.31
2023-02-27T04:19:27.304Z,-0.26
2023-02-27T04:20:27.271Z,-0.19
2023-02-27T04:21:27.561Z,-0.16
2023-02-27T04:22:27.216Z,-0.11
2023-02-27T04:23:27.196Z,-0.10
2023-02-27T04:24:27.186Z,0.03
2023-02-27T04:25:27.134Z,-0.05
2023-02-27T04:26:27.095Z,0.11
2023-02-27T04:27:27.070Z,0.14
2023-02-27T04:28:27.044Z,0.13
2023-02-27T04:29:27.019Z,0.07
2023-02-27T04:30:26.988Z,0.15
2023-02-27T04:31:27.387Z,0.13
2023-02-27T04:32:27.036Z,0.23
2023-02-27T04:33:26.901Z,0.24
2023-02-27T04:34:26.862Z,0.24
2023-02-27T04:35:26.844Z,0.20
2023-02-27T04:36:26.811Z,0.28
2023-02-27T04:37:26.786Z,0.21
2023-02-27T04:38:26.776Z,0.21
2023-02-27T04:39:26.725Z,0.21
2023-02-27T04:40:26.721Z,0.14
2023-02-27T04:41:27.084Z,0.23
2023-02-27T04:42:26.639Z,0.20
2023-02-27T04:43:26.606Z,0.21
2023-02-27T04:44:26.581Z,0.21
2023-02-27T04:45:26.583Z,0.07
2023-02-27T04:46:26.535Z,0.08
2023-02-27T04:47:26.501Z,0.02
2023-02-27T04:48:26.468Z,0.08
2023-02-27T04:49:26.436Z,0.15
2023-02-27T04:50:26.402Z,0.02
2023-02-27T04:51:26.789Z,0.13
2023-02-27T04:52:26.347Z,0.11
2023-02-27T04:53:26.324Z,0.10
2023-02-27T04:54:26.286Z,0.14
2023-02-27T04:55:26.259Z,0.03
2023-02-27T04:56:26.249Z,0.13
2023-02-27T04:57:26.207Z,0.11
2023-02-27T04:58:26.179Z,0.03
2023-02-27T04:59:26.154Z,-0.03
2023-02-27T05:00:26.136Z,-0.01
2023-02-27T05:01:26.594Z,-0.10
2023-02-27T05:02:26.255Z,-0.21
2023-02-27T05:03:26.048Z,-0.26
2023-02-27T05:04:25.998Z,-0.31
2023-02-27T05:05:25.973Z,-0.31
2023-02-27T05:06:25.936Z,-0.26
2023-02-27T05:07:25.911Z,-0.36
2023-02-27T05:08:25.879Z,-0.39
2023-02-27T05:09:25.855Z,-0.40
2023-02-27T05:10:25.816Z,-0.29
2023-02-27T05:11:26.104Z,-0.23
2023-02-27T05:12:25.785Z,-0.23
2023-02-27T05:13:25.739Z,-0.19
2023-02-27T05:14:25.712Z,-0.21
2023-02-27T05:15:25.734Z,-0.36
2023-02-27T05:16:25.723Z,-0.33
2023-02-27T05:17:25.626Z,-0.25
2023-02-27T05:18:25.582Z,-0.25
2023-02-27T05:19:25.562Z,-0.23
2023-02-27T05:20:25.526Z,-0.22
2023-02-27T05:21:25.820Z,-0.22
2023-02-27T05:22:25.471Z,-0.23
2023-02-27T05:23:25.464Z,-0.25
2023-02-27T05:24:25.427Z,-0.28
2023-02-27T05:25:25.387Z,-0.16
2023-02-27T05:26:25.347Z,-0.18
2023-02-27T05:27:25.322Z,-0.11
2023-02-27T05:28:25.324Z,-0.05
2023-02-27T05:29:25.269Z,-0.08
2023-02-27T05:30:25.228Z,-0.15
2023-02-27T05:31:25.557Z,-0.18
2023-02-27T05:32:25.244Z,-0.19
2023-02-27T05:33:25.149Z,-0.29
2023-02-27T05:34:25.119Z,-0.25
2023-02-27T05:35:27.343Z,-0.23
2023-02-27T05:36:25.058Z,-0.26
2023-02-27T05:37:25.031Z,-0.25
2023-02-27T05:38:24.995Z,-0.21
2023-02-27T05:39:24.974Z,-0.25
2023-02-27T05:40:24.952Z,-0.08
2023-02-27T05:41:25.205Z,-0.11
2023-02-27T05:42:24.877Z,-0.03
2023-02-27T05:43:24.857Z,-0.03
2023-02-27T05:44:24.832Z,-0.08
2023-02-27T05:45:24.799Z,-0.04
2023-02-27T05:46:24.764Z,-0.14
2023-02-27T05:47:24.728Z,-0.14
2023-02-27T05:48:24.704Z,-0.07
2023-02-27T05:49:24.670Z,-0.11
2023-02-27T05:50:24.635Z,-0.15
2023-02-27T05:51:24.749Z,-0.16
2023-02-27T05:52:24.595Z,-0.15
2023-02-27T05:53:24.555Z,-0.25
2023-02-27T05:54:24.528Z,-0.26
2023-02-27T05:55:24.500Z,-0.25
2023-02-27T05:56:24.628Z,-0.28
2023-02-27T05:57:24.440Z,-0.14
2023-02-27T05:58:24.430Z,-0.15
2023-02-27T05:59:24.379Z,-0.08
2023-02-27T06:00:24.372Z,-0.05
2023-02-27T06:01:24.317Z,-0.08
2023-02-27T06:02:24.399Z,-0.11
2023-02-27T06:03:24.317Z,-0.08
2023-02-27T06:04:24.236Z,0.00
2023-02-27T06:05:24.198Z,-0.15
2023-02-27T06:06:24.179Z,-0.10
2023-02-27T06:07:24.141Z,-0.11
2023-02-27T06:08:24.122Z,-0.07
2023-02-27T06:09:24.080Z,-0.08
2023-02-27T06:10:24.063Z,-0.08
2023-02-27T06:11:24.032Z,-0.19
2023-02-27T06:12:24.004Z,-0.03
2023-02-27T06:13:23.995Z,-0.01
2023-02-27T06:14:23.942Z,0.00
2023-02-27T06:15:23.906Z,0.00
2023-02-27T06:16:23.966Z,-0.05
2023-02-27T06:17:23.849Z,0.03
2023-02-27T06:18:23.823Z,-0.05
2023-02-27T06:19:23.795Z,0.08
2023-02-27T06:20:23.769Z,0.08
2023-02-27T06:21:23.736Z,-0.05
2023-02-27T06:22:23.703Z,-0.05
2023-02-27T06:23:23.684Z,-0.08
2023-02-27T06:24:23.651Z,-0.14
2023-02-27T06:25:23.617Z,-0.25
2023-02-27T06:26:23.592Z,-0.18
2023-02-27T06:27:23.553Z,-0.25
2023-02-27T06:28:23.534Z,-0.23
2023-02-27T06:29:23.495Z,-0.29
2023-02-27T06:30:23.472Z,-0.26
2023-02-27T06:31:23.438Z,-0.21
2023-02-27T06:32:23.439Z,-0.18
2023-02-27T06:33:23.381Z,-0.11
2023-02-27T06:34:23.354Z,-0.10
2023-02-27T06:35:23.322Z,0.02
2023-02-27T06:36:23.298Z,-0.08
2023-02-27T06:37:23.275Z,0.08
2023-02-27T06:38:23.236Z,0.07
2023-02-27T06:39:23.205Z,0.15
2023-02-27T06:40:23.174Z,0.18
2023-02-27T06:41:23.145Z,0.23
2023-02-27T06:42:23.124Z,0.24
2023-02-27T06:43:23.083Z,0.36
2023-02-27T06:44:23.058Z,0.35
2023-02-27T06:45:23.027Z,0.29
2023-02-27T06:46:23.102Z,0.24
2023-02-27T06:47:22.962Z,0.28
2023-02-27T06:48:22.977Z,0.18
2023-02-27T06:49:22.917Z,0.08
2023-02-27T06:50:22.877Z,0.10
2023-02-27T06:51:22.850Z,0.07
2023-02-27T06:52:22.830Z,0.08
2023-02-27T06:53:22.791Z,-0.08
2023-02-27T06:54:22.762Z,-0.03
2023-02-27T06:55:22.798Z,-0.03
2023-02-27T06:56:22.706Z,0.00
2023-02-27T06:57:22.673Z,-0.03
2023-02-27T06:58:22.648Z,0.04
2023-02-27T06:59:22.615Z,0.00
2023-02-27T07:00:22.610Z,0.07
2023-02-27T07:01:22.605Z,0.17
2023-02-27T07:02:22.527Z,0.20
2023-02-27T07:03:22.504Z,0.23
2023-02-27T07:04:22.569Z,0.35
2023-02-27T07:05:22.439Z,0.39
2023-02-27T07:06:22.421Z,0.42
2023-02-27T07:07:34.391Z,0.44
2023-02-27T07:08:22.356Z,0.46
2023-02-27T07:09:22.329Z,0.46
2023-02-27T07:10:22.306Z,0.50
2023-02-27T07:11:22.270Z,0.53
2023-02-27T07:12:22.243Z,0.58
2023-02-27T07:13:22.207Z,0.58
2023-02-27T07:14:22.189Z,0.60
2023-02-27T07:15:22.164Z,0.51
2023-02-27T07:16:22.123Z,0.60
2023-02-27T07:17:22.086Z,0.53
2023-02-27T07:18:22.073Z,0.55
2023-02-27T07:19:22.032Z,0.44
2023-02-27T07:20:22.030Z,0.49
2023-02-27T07:21:21.976Z,0.50
2023-02-27T07:22:21.969Z,0.53
2023-02-27T07:23:21.921Z,0.57
2023-02-27T07:24:21.898Z,0.46
2023-02-27T07:25:21.865Z,0.38
2023-02-27T07:26:21.837Z,0.42
2023-02-27T07:27:21.799Z,0.44
2023-02-27T07:28:21.820Z,0.47
2023-02-27T07:29:21.736Z,0.46
2023-02-27T07:30:21.708Z,0.44
2023-02-27T07:31:21.700Z,0.47
2023-02-27T07:32:21.720Z,0.41
2023-02-27T07:33:21.628Z,0.42
2023-02-27T07:34:21.595Z,0.44
2023-02-27T07:35:21.562Z,0.49
2023-02-27T07:36:21.561Z,0.51
2023-02-27T07:37:21.518Z,0.60
2023-02-27T07:38:21.512Z,0.53
2023-02-27T07:39:21.464Z,0.62
2023-02-27T07:40:21.425Z,0.62
2023-02-27T07:41:30.329Z,0.69
2023-02-27T07:42:21.402Z,0.73
2023-02-27T07:43:21.338Z,0.72
2023-02-27T07:44:21.313Z,0.72
2023-02-27T07:45:21.274Z,0.83
2023-02-27T07:46:21.311Z,0.78
2023-02-27T07:47:21.222Z,0.80
2023-02-27T07:48:21.194Z,0.87
2023-02-27T07:49:21.171Z,0.86
2023-02-27T07:50:21.130Z,0.90
2023-02-27T07:51:21.106Z,0.94
2023-02-27T07:52:21.108Z,1.04
2023-02-27T07:53:21.053Z,1.04
2023-02-27T07:54:21.030Z,0.93
2023-02-27T07:55:20.996Z,1.02
2023-02-27T07:56:20.969Z,1.04
2023-02-27T07:57:20.933Z,1.08
2023-02-27T07:58:20.908Z,1.11
2023-02-27T07:59:20.878Z,1.18
2023-02-27T08:00:20.846Z,1.14
2023-02-27T08:01:20.810Z,1.12
2023-02-27T08:02:20.830Z,1.23
2023-02-27T08:03:20.760Z,1.18
2023-02-27T08:04:20.767Z,1.20
2023-02-27T08:05:20.698Z,1.32
2023-02-27T08:06:20.674Z,1.33
2023-02-27T08:07:20.637Z,1.40
2023-02-27T08:08:20.634Z,1.36
2023-02-27T08:09:20.580Z,1.45
2023-02-27T08:10:20.598Z,1.48
2023-02-27T08:11:20.517Z,1.58
2023-02-27T08:12:20.491Z,1.51
2023-02-27T08:13:25.238Z,1.44
2023-02-27T08:14:20.437Z,1.50
2023-02-27T08:15:20.406Z,1.55
2023-02-27T08:16:20.406Z,1.54
2023-02-27T08:17:20.344Z,1.59
2023-02-27T08:18:20.323Z,1.63
2023-02-27T08:19:20.290Z,1.66
2023-02-27T08:20:20.284Z,1.69
2023-02-27T08:21:20.233Z,1.79
2023-02-27T08:22:20.213Z,1.80
2023-02-27T08:23:20.188Z,1.76
2023-02-27T08:24:20.170Z,1.84
2023-02-27T08:25:20.121Z,1.83
2023-02-27T08:26:20.087Z,1.83
2023-02-27T08:27:20.057Z,1.99
2023-02-27T08:28:20.044Z,1.99
2023-02-27T08:29:20.007Z,1.87
2023-02-27T08:30:19.969Z,1.87
2023-02-27T08:31:19.984Z,1.90
2023-02-27T08:32:19.926Z,1.86
2023-02-27T08:33:19.890Z,1.87
2023-02-27T08:34:19.863Z,1.81
2023-02-27T08:35:19.822Z,1.83
2023-02-27T08:36:19.796Z,1.86
2023-02-27T08:37:19.766Z,1.87
2023-02-27T08:38:19.740Z,2.00
2023-02-27T08:39:19.709Z,1.90
2023-02-27T08:40:19.714Z,1.99
2023-02-27T08:41:19.645Z,1.83
2023-02-27T08:42:19.653Z,2.00
2023-02-27T08:43:19.596Z,1.98
2023-02-27T08:44:19.574Z,2.02
2023-02-27T08:45:19.537Z,1.86
2023-02-27T08:46:19.505Z,1.99
2023-02-27T08:47:19.529Z,1.95
2023-02-27T08:48:19.451Z,1.99
2023-02-27T08:49:21.470Z,2.05
2023-02-27T08:50:19.406Z,2.00
2023-02-27T08:51:19.369Z,2.02
2023-02-27T08:52:19.344Z,2.10
2023-02-27T08:53:19.301Z,2.10
2023-02-27T08:54:19.270Z,2.17
2023-02-27T08:55:19.247Z,2.20
2023-02-27T08:56:19.253Z,2.16
2023-02-27T08:57:19.188Z,2.20
2023-02-27T08:58:19.157Z,2.17
2023-02-27T08:59:19.135Z,2.20
2023-02-27T09:00:19.184Z,2.20
2023-02-27T09:01:19.111Z,2.23
2023-02-27T09:02:19.094Z,2.21
2023-02-27T09:03:19.015Z,2.23
2023-02-27T09:04:18.992Z,2.25
2023-02-27T09:05:18.948Z,2.35
2023-02-27T09:06:18.935Z,2.42
2023-02-27T09:07:18.900Z,2.36
2023-02-27T09:08:18.873Z,2.34
2023-02-27T09:09:18.836Z,2.36
2023-02-27T09:10:18.813Z,2.45
2023-02-27T09:11:18.783Z,2.42
2023-02-27T09:12:18.795Z,2.48
2023-02-27T09:13:18.725Z,2.49
2023-02-27T09:14:18.700Z,2.49
2023-02-27T09:15:18.661Z,2.49
2023-02-27T09:16:18.696Z,2.57
2023-02-27T09:17:18.609Z,2.67
2023-02-27T09:18:18.588Z,2.71
2023-02-27T09:19:18.554Z,2.63
2023-02-27T09:20:18.544Z,2.79
2023-02-27T09:21:18.492Z,2.79
2023-02-27T09:22:18.471Z,2.72
2023-02-27T09:23:18.448Z,2.75
2023-02-27T09:24:20.555Z,2.75
2023-02-27T09:25:18.375Z,2.75
2023-02-27T09:26:18.351Z,2.81
2023-02-27T09:27:18.323Z,2.79
2023-02-27T09:28:18.413Z,2.96
2023-02-27T09:29:18.264Z,2.95
2023-02-27T09:30:18.241Z,2.93
2023-02-27T09:31:18.255Z,2.93
2023-02-27T09:32:18.253Z,3.00
2023-02-27T09:33:18.150Z,2.99
2023-02-27T09:34:18.123Z,3.06
2023-02-27T09:35:18.090Z,3.11
2023-02-27T09:36:18.069Z,3.03
2023-02-27T09:37:18.032Z,3.08
2023-02-27T09:38:18.004Z,3.21
2023-02-27T09:39:17.975Z,3.24
2023-02-27T09:40:17.950Z,3.33
2023-02-27T09:41:17.915Z,3.35
2023-02-27T09:42:17.893Z,3.33
2023-02-27T09:43:17.930Z,3.43
2023-02-27T09:44:17.875Z,3.40
2023-02-27T09:45:17.812Z,3.47
2023-02-27T09:46:17.858Z,3.42
2023-02-27T09:47:17.771Z,3.51
2023-02-27T09:48:17.738Z,3.50
2023-02-27T09:49:17.690Z,3.45
2023-02-27T09:50:17.671Z,3.50
2023-02-27T09:51:17.629Z,3.50
2023-02-27T09:52:17.609Z,3.47
2023-02-27T09:53:17.581Z,3.47
2023-02-27T09:54:17.550Z,3.47
2023-02-27T09:55:17.524Z,3.50
2023-02-27T09:56:17.496Z,3.51
2023-02-27T09:57:17.463Z,3.50
2023-02-27T09:58:17.441Z,3.58
2023-02-27T09:59:17.405Z,3.52
2023-02-27T10:00:17.404Z,3.52
2023-02-27T10:01:17.347Z,3.57
2023-02-27T10:02:17.369Z,3.65
2023-02-27T10:03:17.373Z,3.66
2023-02-27T10:04:17.293Z,3.70
2023-02-27T10:05:17.231Z,3.76
2023-02-27T10:06:17.213Z,3.76
2023-02-27T10:07:17.199Z,3.75
2023-02-27T10:08:17.155Z,3.79
2023-02-27T10:09:17.128Z,3.90
2023-02-27T10:10:17.099Z,3.83
2023-02-27T10:11:17.066Z,3.87
2023-02-27T10:12:17.035Z,3.87
2023-02-27T10:13:17.014Z,3.90
2023-02-27T10:14:16.977Z,3.97
2023-02-27T10:15:16.954Z,3.96
2023-02-27T10:16:17.055Z,3.90
2023-02-27T10:17:16.906Z,3.91
2023-02-27T10:18:26.825Z,3.96
2023-02-27T10:19:16.848Z,3.75
2023-02-27T10:20:16.842Z,3.90
2023-02-27T10:21:16.790Z,3.91
2023-02-27T10:22:16.757Z,3.87
2023-02-27T10:23:16.744Z,3.94
2023-02-27T10:24:16.702Z,3.87
2023-02-27T10:25:30.319Z,3.91
2023-02-27T10:26:16.641Z,3.96
2023-02-27T10:27:16.618Z,4.02
2023-02-27T10:28:16.591Z,4.09
2023-02-27T10:29:16.565Z,4.09
2023-02-27T10:30:23.614Z,4.08
2023-02-27T10:31:16.562Z,4.16
2023-02-27T10:32:16.584Z,4.24
2023-02-27T10:33:16.455Z,4.24
2023-02-27T10:34:16.490Z,4.23
2023-02-27T10:35:16.408Z,4.29
2023-02-27T10:36:30.941Z,4.24
2023-02-27T10:37:16.355Z,4.27
2023-02-27T10:38:16.320Z,4.26
2023-02-27T10:39:16.288Z,4.32
2023-02-27T10:40:16.253Z,4.36
2023-02-27T10:41:16.228Z,4.34
2023-02-27T10:42:16.207Z,4.26
2023-02-27T10:43:16.175Z,4.23
2023-02-27T10:44:16.153Z,4.24
2023-02-27T10:45:16.120Z,4.24
2023-02-27T10:46:16.211Z,4.16
2023-02-27T10:47:16.054Z,4.16
2023-02-27T10:48:16.040Z,4.23
2023-02-27T10:49:18.268Z,4.24
2023-02-27T10:50:15.961Z,4.23
2023-02-27T10:51:15.941Z,4.29
2023-02-27T10:52:15.907Z,4.40
2023-02-27T10:53:15.880Z,4.42
2023-02-27T10:54:15.854Z,4.59
2023-02-27T10:55:15.826Z,4.66
2023-02-27T10:56:15.807Z,4.75
2023-02-27T10:57:15.777Z,4.70
2023-02-27T10:58:15.740Z,4.67
2023-02-27T10:59:15.716Z,4.65
2023-02-27T11:00:15.690Z,4.51
2023-02-27T11:01:15.703Z,4.45
2023-02-27T11:02:15.624Z,4.47
2023-02-27T11:03:15.598Z,4.60
2023-02-27T11:04:15.625Z,4.63
2023-02-27T11:05:15.548Z,4.62
2023-02-27T11:06:15.512Z,4.54
2023-02-27T11:07:15.488Z,4.63
2023-02-27T11:08:15.467Z,4.51
2023-02-27T11:09:15.435Z,4.44
2023-02-27T11:10:15.408Z,4.32
2023-02-27T11:11:15.388Z,4.30
2023-02-27T11:12:15.348Z,4.29
2023-02-27T11:13:15.321Z,4.33
2023-02-27T11:14:15.294Z,4.40
2023-02-27T11:15:15.265Z,4.47
2023-02-27T11:16:15.475Z,4.42
2023-02-27T11:17:15.214Z,4.36
2023-02-27T11:18:15.188Z,4.41
2023-02-27T11:19:15.188Z,4.41
2023-02-27T11:20:15.144Z,4.47
2023-02-27T11:21:15.098Z,4.41
2023-02-27T11:22:15.078Z,4.51
2023-02-27T11:23:15.044Z,4.44
2023-02-27T11:24:15.017Z,4.48
2023-02-27T11:25:14.988Z,4.45
2023-02-27T11:26:14.955Z,4.58
2023-02-27T11:27:14.930Z,4.67
2023-02-27T11:28:14.901Z,4.67
2023-02-27T11:29:14.876Z,4.78
2023-02-27T11:30:16.324Z,4.66
2023-02-27T11:31:14.909Z,4.77
2023-02-27T11:32:14.902Z,4.82
2023-02-27T11:33:14.769Z,4.88
2023-02-27T11:34:14.739Z,5.02
2023-02-27T11:35:14.717Z,4.96
2023-02-27T11:36:17.518Z,4.99
2023-02-27T11:37:14.655Z,5.03
2023-02-27T11:38:14.621Z,5.03
2023-02-27T11:39:14.615Z,5.03
2023-02-27T11:40:14.621Z,5.04
2023-02-27T11:41:14.542Z,5.06
2023-02-27T11:42:16.906Z,4.99
2023-02-27T11:43:14.484Z,5.06
2023-02-27T11:44:14.454Z,5.09
2023-02-27T11:45:14.431Z,5.10
2023-02-27T11:46:43.497Z,5.17
2023-02-27T11:47:14.433Z,5.28
2023-02-27T11:48:14.343Z,5.39
2023-02-27T11:49:14.323Z,5.43
2023-02-27T11:50:14.322Z,5.46
2023-02-27T11:51:14.268Z,5.43
2023-02-27T11:52:14.258Z,5.36
2023-02-27T11:53:14.210Z,5.39
2023-02-27T11:54:14.184Z,5.51
2023-02-27T11:55:14.155Z,5.46
2023-02-27T11:56:14.134Z,5.45
2023-02-27T11:57:14.105Z,5.53
2023-02-27T11:58:14.074Z,5.57
2023-02-27T11:59:14.046Z,5.60
2023-02-27T12:00:14.090Z,5.53
2023-02-27T12:01:13.991Z,5.42
2023-02-27T12:02:13.967Z,5.45
2023-02-27T12:03:14.039Z,5.57
2023-02-27T12:04:13.991Z,5.58
2023-02-27T12:05:13.890Z,5.58
2023-02-27T12:06:13.843Z,5.57
2023-02-27T12:07:13.823Z,5.60
2023-02-27T12:08:13.820Z,5.58
2023-02-27T12:09:13.772Z,5.40
2023-02-27T12:10:13.761Z,5.60
2023-02-27T12:11:14.830Z,5.49
2023-02-27T12:12:13.685Z,5.48
2023-02-27T12:13:13.661Z,5.42
2023-02-27T12:14:13.636Z,5.35
2023-02-27T12:15:13.631Z,5.28
2023-02-27T12:16:13.621Z,5.22
2023-02-27T12:17:13.552Z,5.22
2023-02-27T12:18:13.519Z,5.20
2023-02-27T12:19:13.490Z,5.09
2023-02-27T12:20:13.684Z,5.10
2023-02-27T12:21:13.437Z,5.02
2023-02-27T12:22:13.402Z,5.07
2023-02-27T12:23:13.380Z,5.07
2023-02-27T12:24:13.370Z,5.06
2023-02-27T12:25:13.329Z,4.96
2023-02-27T12:26:13.297Z,4.92
2023-02-27T12:27:13.274Z,4.92
2023-02-27T12:28:13.239Z,4.92
2023-02-27T12:29:13.217Z,4.92
2023-02-27T12:30:13.238Z,4.84
2023-02-27T12:31:13.256Z,4.89
2023-02-27T12:32:13.248Z,4.96
2023-02-27T12:33:13.106Z,4.97
2023-02-27T12:34:13.081Z,5.04
2023-02-27T12:35:13.052Z,5.03
2023-02-27T12:36:13.016Z,5.06
2023-02-27T12:37:12.987Z,5.27
2023-02-27T12:38:12.958Z,5.27
2023-02-27T12:39:12.930Z,5.30
2023-02-27T12:40:12.988Z,5.40
2023-02-27T12:41:12.881Z,5.43
2023-02-27T12:42:12.852Z,5.38
2023-02-27T12:43:12.832Z,5.51
2023-02-27T12:44:12.792Z,5.46
2023-02-27T12:45:12.763Z,5.58
2023-02-27T12:46:12.784Z,5.61
2023-02-27T12:47:12.729Z,5.49
2023-02-27T12:48:12.676Z,5.45
2023-02-27T12:49:12.654Z,5.39
2023-02-27T12:50:12.638Z,5.48
2023-02-27T12:51:12.601Z,5.48
2023-02-27T12:52:12.567Z,5.51
2023-02-27T12:53:12.553Z,5.42
2023-02-27T12:54:12.510Z,5.46
2023-02-27T12:55:12.507Z,5.39
2023-02-27T12:56:12.486Z,5.46
2023-02-27T12:57:12.454Z,5.51
2023-02-27T12:58:12.404Z,5.38
2023-02-27T12:59:12.383Z,5.43
2023-02-27T13:00:12.352Z,5.35
2023-02-27T13:01:12.374Z,5.31
2023-02-27T13:02:12.292Z,5.38
2023-02-27T13:03:12.266Z,5.43
2023-02-27T13:04:12.311Z,5.40
2023-02-27T13:05:12.227Z,5.43
2023-02-27T13:06:12.187Z,5.28
2023-02-27T13:07:12.156Z,5.33
2023-02-27T13:08:12.130Z,5.39
2023-02-27T13:09:12.100Z,5.28
2023-02-27T13:10:12.068Z,5.36
2023-02-27T13:11:12.044Z,5.42
2023-02-27T13:12:12.039Z,5.51
2023-02-27T13:13:11.994Z,5.56
2023-02-27T13:14:11.957Z,5.51